createdAt,value
2022-11-22T00:02:54.487Z,100.00
2022-11-22T00:07:56.156Z,100.00
2022-11-22T00:12:58.149Z,100.00
2022-11-22T00:17:59.927Z,100.00
2022-11-22T00:23:01.686Z,100.00
2022-11-22T00:28:03.381Z,100.00
2022-11-22T00:33:05.101Z,100.00
2022-11-22T00:38:06.750Z,100.00
2022-11-22T00:43:08.381Z,100.00
2022-11-22T00:48:10.200Z,100.00
2022-11-22T00:53:11.811Z,100.00
2022-11-22T00:58:13.472Z,100.00
2022-11-22T01:03:15.099Z,100.00
2022-11-22T01:08:16.740Z,100.00
2022-11-22T01:13:18.371Z,100.00
2022-11-22T01:18:20.054Z,100.00
2022-11-22T01:23:21.730Z,100.00
2022-11-22T01:28:23.726Z,100.00
2022-11-22T01:33:25.492Z,100.00
2022-11-22T01:38:27.288Z,100.00
2022-11-22T01:43:29.424Z,100.00
2022-11-22T01:48:49.739Z,100.00
2022-11-22T01:53:53.387Z,100.00
2022-11-22T01:59:02.384Z,100.00
2022-11-22T02:04:09.527Z,100.00
2022-11-22T02:09:12.657Z,100.00
2022-11-22T02:14:16.466Z,100.00
2022-11-22T02:19:36.478Z,100.00
2022-11-22T02:24:46.805Z,100.00
2022-11-22T02:29:48.472Z,100.00
2022-11-22T02:34:51.407Z,100.00
2022-11-22T02:40:02.957Z,100.00
2022-11-22T02:45:04.979Z,100.00
2022-11-22T02:50:07.600Z,100.00
2022-11-22T02:55:09.274Z,100.00
2022-11-22T03:00:11.705Z,100.00
2022-11-22T03:05:13.486Z,100.00
2022-11-22T03:10:16.102Z,100.00
2022-11-22T03:15:17.939Z,100.00
2022-11-22T03:20:19.551Z,100.00
2022-11-22T03:25:21.260Z,100.00
2022-11-22T03:30:23.023Z,100.00
2022-11-22T03:35:25.097Z,100.00
2022-11-22T03:40:27.132Z,100.00
2022-11-22T03:45:29.739Z,100.00
2022-11-22T03:50:31.693Z,100.00
2022-11-22T03:55:33.813Z,100.00
2022-11-22T04:00:36.366Z,100.00
2022-11-22T04:05:38.011Z,100.00
2022-11-22T04:10:39.664Z,100.00
2022-11-22T04:15:41.465Z,100.00
2022-11-22T04:21:01.444Z,100.00
2022-11-22T04:26:03.164Z,100.00
2022-11-22T04:31:23.393Z,100.00
2022-11-22T04:36:25.088Z,100.00
2022-11-22T04:41:26.778Z,100.00
2022-11-22T04:46:28.377Z,100.00
2022-11-22T04:51:48.651Z,100.00
2022-11-22T04:56:50.279Z,100.00
2022-11-22T05:01:52.983Z,100.00
2022-11-22T05:06:56.714Z,100.00
2022-11-22T05:11:58.386Z,100.00
2022-11-22T05:17:00.092Z,100.00
2022-11-22T05:22:01.805Z,100.00
2022-11-22T05:27:03.553Z,100.00
2022-11-22T05:32:05.149Z,100.00
2022-11-22T05:37:06.797Z,100.00
2022-11-22T05:42:08.509Z,100.00
2022-11-22T05:47:10.629Z,100.00
2022-11-22T05:52:12.769Z,100.00
2022-11-22T05:57:14.395Z,100.00
2022-11-22T06:02:16.082Z,100.00
2022-11-22T06:07:17.843Z,100.00
2022-11-22T06:12:19.454Z,100.00
2022-11-22T06:17:21.154Z,100.00
2022-11-22T06:22:22.848Z,100.00
2022-11-22T06:27:24.486Z,100.00
2022-11-22T06:32:26.168Z,100.00
2022-11-22T06:37:28.887Z,100.00
2022-11-22T06:42:30.598Z,100.00
2022-11-22T06:47:33.441Z,100.00
2022-11-22T06:52:35.103Z,100.00
2022-11-22T06:57:36.810Z,100.00
2022-11-22T07:02:38.478Z,100.00
2022-11-22T07:07:40.188Z,100.00
2022-11-22T07:12:41.907Z,100.00
2022-11-22T07:17:43.525Z,100.00
2022-11-22T07:22:47.633Z,100.00
2022-11-22T07:27:52.116Z,100.00
2022-11-22T07:32:53.727Z,100.00
2022-11-22T07:37:55.332Z,100.00
2022-11-22T07:42:58.635Z,100.00
2022-11-22T07:48:01.476Z,100.00
2022-11-22T07:53:03.247Z,100.00
2022-11-22T07:58:04.940Z,100.00
2022-11-22T08:03:09.471Z,100.00
2022-11-22T08:08:11.723Z,100.00
2022-11-22T08:13:13.589Z,100.00
2022-11-22T08:18:16.060Z,100.00
2022-11-22T08:23:17.730Z,100.00
2022-11-22T08:28:19.466Z,100.00
2022-11-22T08:33:21.283Z,100.00
2022-11-22T08:38:22.936Z,100.00
2022-11-22T08:43:25.893Z,100.00
2022-11-22T08:48:29.470Z,100.00
2022-11-22T08:53:33.258Z,100.00
2022-11-22T08:58:35.456Z,100.00
2022-11-22T09:03:37.721Z,99.55
2022-11-22T09:08:43.028Z,98.75
2022-11-22T09:13:47.192Z,98.92
2022-11-22T09:18:49.373Z,95.43
2022-11-22T09:23:53.533Z,97.14
2022-11-22T09:28:56.877Z,95.31
2022-11-22T09:33:58.529Z,94.63
2022-11-22T09:39:00.188Z,96.32
2022-11-22T09:44:04.663Z,94.40
2022-11-22T09:49:29.441Z,93.13
2022-11-22T09:54:41.138Z,93.36
2022-11-22T10:06:35.807Z,93.56
2022-11-22T10:11:49.695Z,91.34
2022-11-22T10:17:19.936Z,90.95
2022-11-22T10:22:21.714Z,91.90
2022-11-22T10:27:23.331Z,92.29
2022-11-22T10:32:30.001Z,89.50
2022-11-22T10:37:54.001Z,90.41
2022-11-22T10:43:31.584Z,86.46
2022-11-22T10:48:43.819Z,87.01
2022-11-22T10:54:03.543Z,84.15
2022-11-22T10:59:17.677Z,78.91
2022-11-22T11:04:21.135Z,75.13
2022-11-22T11:10:14.886Z,76.81
2022-11-22T11:15:30.675Z,79.74
2022-11-22T11:20:38.649Z,82.09
2022-11-22T11:25:43.328Z,84.05
2022-11-22T11:31:19.241Z,85.62
2022-11-22T11:36:24.279Z,85.92
2022-11-22T11:41:32.623Z,87.53
2022-11-22T11:46:40.287Z,86.90
2022-11-22T11:51:54.081Z,87.81
2022-11-22T11:56:56.590Z,85.64
2022-11-22T12:02:13.512Z,89.20
2022-11-22T12:07:18.231Z,88.10
2022-11-22T12:12:33.234Z,85.54
2022-11-22T12:17:39.334Z,87.94
2022-11-22T12:23:33.046Z,87.12
2022-11-22T12:28:35.366Z,88.95
2022-11-22T12:33:41.994Z,90.00
2022-11-22T12:38:45.451Z,90.71
2022-11-22T12:43:53.747Z,91.17
2022-11-22T12:49:01.167Z,90.77
2022-11-22T12:54:09.146Z,89.75
2022-11-22T12:59:10.702Z,92.10
2022-11-22T13:04:12.280Z,91.08
2022-11-22T13:09:33.336Z,89.15
2022-11-22T13:14:35.149Z,90.44
2022-11-22T13:19:46.801Z,90.39
2022-11-22T13:25:07.438Z,89.82
2022-11-22T13:30:21.023Z,90.58
2022-11-22T13:35:35.183Z,90.90
2022-11-22T13:40:42.284Z,90.23
2022-11-22T13:45:51.591Z,89.82
2022-11-22T13:50:53.347Z,92.38
2022-11-22T13:55:57.006Z,91.97
2022-11-22T14:00:59.931Z,92.71
2022-11-22T14:06:16.288Z,92.53
2022-11-22T14:11:30.461Z,91.99
2022-11-22T14:16:47.648Z,90.75
2022-11-22T14:21:59.864Z,90.27
2022-11-22T14:27:08.161Z,92.34
2022-11-22T14:32:22.652Z,93.71
2022-11-22T14:37:34.330Z,94.80
2022-11-22T14:42:37.073Z,93.06
2022-11-22T14:47:43.394Z,92.66
2022-11-22T14:52:48.469Z,94.16
2022-11-22T14:58:01.128Z,93.85
2022-11-22T15:03:02.842Z,93.72
2022-11-22T15:09:11.234Z,92.21
2022-11-22T15:13:50.648Z,93.38
2022-11-22T15:58:13.931Z,93.62
2022-11-22T16:03:24.640Z,94.21
2022-11-22T16:08:31.038Z,95.18
2022-11-22T16:13:36.217Z,94.54
2022-11-22T16:18:44.067Z,95.21
2022-11-22T16:23:47.088Z,94.49
2022-11-22T16:28:51.549Z,94.71
2022-11-22T16:33:55.522Z,95.49
2022-11-22T16:38:58.740Z,95.47
2022-11-22T16:44:02.699Z,96.43
2022-11-22T16:49:19.214Z,95.77
2022-11-22T16:54:21.549Z,96.32
2022-11-22T16:59:23.145Z,97.43
2022-11-22T17:04:26.952Z,97.40
2022-11-22T17:09:29.067Z,96.74
2022-11-22T17:14:31.097Z,96.10
2022-11-22T17:24:54.680Z,100.00
2022-11-22T17:30:05.747Z,100.00
2022-11-22T17:35:09.979Z,99.24
2022-11-22T17:40:13.246Z,97.81
2022-11-22T17:45:14.852Z,98.46
2022-11-22T17:50:16.636Z,98.35
2022-11-22T17:55:18.286Z,99.78
2022-11-22T18:00:24.207Z,98.99
2022-11-22T18:05:28.529Z,98.54
2022-11-22T18:10:30.245Z,99.17
2022-11-22T18:15:31.894Z,99.70
2022-11-22T18:26:38.815Z,100.00
2022-11-22T18:31:51.689Z,99.79
2022-11-22T18:37:00.757Z,99.64
2022-11-22T18:42:05.190Z,100.00
2022-11-22T18:47:07.479Z,100.00
2022-11-22T18:52:12.012Z,100.00
2022-11-22T18:57:16.554Z,100.00
2022-11-22T19:02:19.964Z,100.00
2022-11-22T19:07:21.945Z,100.00
2022-11-22T19:12:23.598Z,99.03
2022-11-22T19:17:25.270Z,100.00
2022-11-22T19:22:27.087Z,100.00
2022-11-22T19:27:28.750Z,99.35
2022-11-22T19:32:30.364Z,98.38
2022-11-22T19:37:32.645Z,98.38
2022-11-22T19:42:36.109Z,100.00
2022-11-22T19:47:37.761Z,100.00
2022-11-22T19:52:39.518Z,99.72
2022-11-22T19:57:41.163Z,100.00
2022-11-22T20:02:42.966Z,100.00
2022-11-22T20:07:44.862Z,100.00
2022-11-22T20:12:46.943Z,100.00
2022-11-22T20:17:48.660Z,100.00
2022-11-22T20:22:50.415Z,100.00
2022-11-22T20:27:52.105Z,100.00
2022-11-22T20:32:54.269Z,100.00
2022-11-22T20:38:00.648Z,100.00
2022-11-22T20:43:02.212Z,100.00
2022-11-22T20:48:04.169Z,100.00
2022-11-22T20:53:05.785Z,100.00
2022-11-22T20:58:07.623Z,100.00
2022-11-22T21:03:09.298Z,100.00
2022-11-22T21:08:10.922Z,100.00
2022-11-22T21:13:16.184Z,100.00
2022-11-22T21:18:26.600Z,100.00
2022-11-22T21:23:28.256Z,100.00
2022-11-22T21:28:30.188Z,100.00
2022-11-22T21:33:33.782Z,100.00
2022-11-22T21:38:35.959Z,100.00
2022-11-22T21:43:37.860Z,100.00
2022-11-22T21:48:39.850Z,100.00
2022-11-22T21:53:42.022Z,100.00
2022-11-22T21:58:43.919Z,100.00
2022-11-22T22:03:45.809Z,100.00
2022-11-22T22:08:47.387Z,100.00
2022-11-22T22:13:49.208Z,100.00
2022-11-22T22:18:50.796Z,100.00
2022-11-22T22:23:53.661Z,100.00
2022-11-22T22:28:55.380Z,100.00
2022-11-22T22:33:57.669Z,100.00
2022-11-22T22:38:59.743Z,100.00
2022-11-22T22:44:01.493Z,100.00
2022-11-22T22:49:03.787Z,100.00
2022-11-22T22:54:05.567Z,100.00
2022-11-22T22:59:07.859Z,100.00
2022-11-22T23:04:10.038Z,100.00
2022-11-22T23:09:12.159Z,100.00
2022-11-22T23:14:16.247Z,100.00
2022-11-22T23:19:17.831Z,100.00
2022-11-22T23:24:19.532Z,100.00
2022-11-22T23:29:21.162Z,100.00
2022-11-22T23:34:22.854Z,100.00
2022-11-22T23:39:24.566Z,100.00
2022-11-22T23:44:26.150Z,100.00
2022-11-22T23:49:27.764Z,100.00
2022-11-22T23:54:29.342Z,100.00
2022-11-22T23:59:31.225Z,100.00
